CHH992 ZSCN-ZSSS
Flight info
| Callsign | CHH992 |
|---|---|
| Flight time | N/A |
| Altitude | 32100 |
| Route | LAPEN W105 XSH/K0852S1010 W50 OTBUG/K0850S1070 W50 IKUBA V65 VILID W164 OREVO W546 SNQ W581 ESBAG R343 SASAN |
| Aircraft | B738/M-SDE2E3FGHIRWXY/LB1 |
Departure
| Time | 2026-04-20 16:46 |
|---|---|
| Airport | Nanchang Changbei International Airport (ZSCN) |
Arrival
| Time | N/A |
|---|---|
| Airport | Shanghai Hongqiao International Airport (ZSSS) |
| Time | Latitude | Longitude | Altitude | Speed | Heading |
|---|---|---|---|---|---|
| 2026-04-20 16:34 | 28.86071 | 115.90681 | 141 ft | 1 kts | 111° |
| 2026-04-20 16:35 | 28.86076 | 115.90666 | 146 ft | 3 kts | 112° |
| 2026-04-20 16:36 | 28.86084 | 115.90645 | 141 ft | 3 kts | 114° |
| 2026-04-20 16:36 | 28.86093 | 115.90624 | 140 ft | 3 kts | 118° |
| 2026-04-20 16:36 | 28.86103 | 115.90604 | 141 ft | 3 kts | 129° |
| 2026-04-20 16:36 | 28.86117 | 115.90589 | 141 ft | 3 kts | 159° |
| 2026-04-20 16:37 | 28.86128 | 115.90586 | 141 ft | 1 kts | 202° |
| 2026-04-20 16:37 | 28.86129 | 115.90587 | 141 ft | 1 kts | 203° |
| 2026-04-20 16:39 | 28.86126 | 115.90585 | 141 ft | 3 kts | 204° |
| 2026-04-20 16:40 | 28.86090 | 115.90567 | 140 ft | 7 kts | 203° |
| 2026-04-20 16:40 | 28.86045 | 115.90546 | 140 ft | 7 kts | 201° |
| 2026-04-20 16:40 | 28.86019 | 115.90506 | 140 ft | 7 kts | 265° |
| 2026-04-20 16:40 | 28.86021 | 115.90453 | 140 ft | 7 kts | 263° |
| 2026-04-20 16:41 | 28.86013 | 115.90402 | 139 ft | 6 kts | 258° |
| 2026-04-20 16:41 | 28.86012 | 115.90352 | 139 ft | 6 kts | 284° |
| 2026-04-20 16:41 | 28.86023 | 115.90303 | 139 ft | 6 kts | 277° |
| 2026-04-20 16:41 | 28.86013 | 115.90258 | 139 ft | 6 kts | 228° |
| 2026-04-20 16:42 | 28.85976 | 115.90235 | 138 ft | 6 kts | 207° |
| 2026-04-20 16:42 | 28.85933 | 115.90209 | 138 ft | 10 kts | 207° |
| 2026-04-20 16:42 | 28.85842 | 115.90162 | 137 ft | 18 kts | 200° |
| 2026-04-20 16:42 | 28.85698 | 115.90096 | 136 ft | 26 kts | 202° |
| 2026-04-20 16:43 | 28.85512 | 115.90005 | 135 ft | 32 kts | 203° |
| 2026-04-20 16:43 | 28.85471 | 115.89985 | 135 ft | 31 kts | 203° |
| 2026-04-20 16:43 | 28.85279 | 115.89893 | 133 ft | 29 kts | 202° |
| 2026-04-20 16:43 | 28.85099 | 115.89804 | 131 ft | 23 kts | 204° |
| 2026-04-20 16:44 | 28.85036 | 115.89713 | 131 ft | 15 kts | 288° |
| 2026-04-20 16:44 | 28.85046 | 115.89683 | 131 ft | 0 kts | 292° |
| 2026-04-20 16:44 | 28.85046 | 115.89682 | 131 ft | 1 kts | 292° |
| 2026-04-20 16:45 | 28.85064 | 115.89637 | 128 ft | 9 kts | 298° |
| 2026-04-20 16:45 | 28.85112 | 115.89605 | 128 ft | 8 kts | 2° |
| 2026-04-20 16:45 | 28.85165 | 115.89627 | 127 ft | 8 kts | 22° |
| 2026-04-20 16:45 | 28.85218 | 115.89652 | 128 ft | 10 kts | 23° |
| 2026-04-20 16:46 | 28.85472 | 115.89776 | 134 ft | 75 kts | 22° |
| 2026-04-20 16:46 | 28.86159 | 115.90108 | 138 ft | 137 kts | 23° |
| 2026-04-20 16:46 | 28.87173 | 115.90632 | 407 ft | 171 kts | 25° |
| 2026-04-20 16:46 | 28.88252 | 115.91117 | 1385 ft | 160 kts | 21° |
| 2026-04-20 16:47 | 28.89328 | 115.91571 | 2183 ft | 171 kts | 22° |
| 2026-04-20 16:47 | 28.90512 | 115.92079 | 2638 ft | 195 kts | 26° |
| 2026-04-20 16:47 | 28.91846 | 115.92699 | 3062 ft | 214 kts | 24° |
| 2026-04-20 16:47 | 28.93305 | 115.93295 | 3549 ft | 228 kts | 24° |
| 2026-04-20 16:48 | 28.94805 | 115.93907 | 4254 ft | 235 kts | 25° |
| 2026-04-20 16:48 | 28.96371 | 115.94579 | 4922 ft | 245 kts | 25° |
| 2026-04-20 16:48 | 28.97978 | 115.95283 | 5632 ft | 252 kts | 24° |
| 2026-04-20 16:48 | 28.99638 | 115.96016 | 6313 ft | 259 kts | 24° |
| 2026-04-20 16:49 | 29.01340 | 115.96762 | 6984 ft | 265 kts | 25° |
| 2026-04-20 16:49 | 29.03044 | 115.97630 | 7633 ft | 271 kts | 29° |
| 2026-04-20 16:49 | 29.04759 | 115.98581 | 8293 ft | 277 kts | 29° |
| 2026-04-20 16:49 | 29.06456 | 115.99528 | 8936 ft | 284 kts | 29° |
| 2026-04-20 16:50 | 29.08255 | 116.00526 | 9621 ft | 290 kts | 29° |
| 2026-04-20 16:50 | 29.10095 | 116.01539 | 10251 ft | 297 kts | 28° |
| 2026-04-20 16:50 | 29.11972 | 116.02567 | 10900 ft | 301 kts | 27° |
| 2026-04-20 16:50 | 29.13863 | 116.03599 | 11619 ft | 302 kts | 27° |
| 2026-04-20 16:51 | 29.15775 | 116.04642 | 12285 ft | 307 kts | 27° |
| 2026-04-20 16:51 | 29.17723 | 116.05694 | 12922 ft | 312 kts | 22° |
| 2026-04-20 16:51 | 29.19856 | 116.06112 | 13505 ft | 315 kts | 349° |
| 2026-04-20 16:51 | 29.21852 | 116.05242 | 14119 ft | 305 kts | 315° |
| 2026-04-20 16:52 | 29.23104 | 116.03410 | 14744 ft | 287 kts | 283° |
| 2026-04-20 16:52 | 29.23654 | 116.01251 | 15426 ft | 284 kts | 283° |
| 2026-04-20 16:52 | 29.24397 | 115.99135 | 16089 ft | 287 kts | 285° |
| 2026-04-20 16:52 | 29.25173 | 115.97021 | 16738 ft | 289 kts | 285° |
| 2026-04-20 16:53 | 29.25954 | 115.94900 | 17405 ft | 289 kts | 286° |
| 2026-04-20 16:53 | 29.26742 | 115.92771 | 18037 ft | 292 kts | 286° |
| 2026-04-20 16:53 | 29.27538 | 115.90631 | 18623 ft | 293 kts | 286° |
| 2026-04-20 16:53 | 29.28342 | 115.88475 | 19169 ft | 295 kts | 286° |
| 2026-04-20 16:54 | 29.29155 | 115.86301 | 19707 ft | 297 kts | 287° |
| 2026-04-20 16:54 | 29.29969 | 115.84120 | 20245 ft | 299 kts | 287° |
| 2026-04-20 16:54 | 29.30802 | 115.81893 | 20564 ft | 311 kts | 287° |
| 2026-04-20 16:54 | 29.31676 | 115.79556 | 20668 ft | 328 kts | 288° |
| 2026-04-20 16:55 | 29.32656 | 115.77117 | 20777 ft | 349 kts | 296° |
| 2026-04-20 16:55 | 29.34307 | 115.75000 | 20890 ft | 377 kts | 317° |
| 2026-04-20 16:55 | 29.36695 | 115.73535 | 20997 ft | 402 kts | 333° |
| 2026-04-20 16:55 | 29.39357 | 115.72373 | 21094 ft | 416 kts | 335° |
| 2026-04-20 16:56 | 29.42118 | 115.71223 | 21179 ft | 429 kts | 335° |
| 2026-04-20 16:56 | 29.44957 | 115.70040 | 21259 ft | 439 kts | 335° |
| 2026-04-20 16:56 | 29.47841 | 115.68816 | 21585 ft | 442 kts | 334° |
| 2026-04-20 16:56 | 29.50721 | 115.67573 | 21969 ft | 444 kts | 334° |
| 2026-04-20 16:57 | 29.53614 | 115.66311 | 22298 ft | 446 kts | 334° |
| 2026-04-20 16:57 | 29.56527 | 115.65033 | 22645 ft | 449 kts | 334° |
| 2026-04-20 16:57 | 29.59453 | 115.63750 | 22989 ft | 451 kts | 334° |
| 2026-04-20 16:57 | 29.62386 | 115.62469 | 23393 ft | 451 kts | 334° |
| 2026-04-20 16:58 | 29.65313 | 115.61188 | 23761 ft | 451 kts | 334° |
| 2026-04-20 16:58 | 29.68252 | 115.59900 | 24009 ft | 453 kts | 334° |
| 2026-04-20 16:58 | 29.71212 | 115.58603 | 24242 ft | 456 kts | 334° |
| 2026-04-20 16:58 | 29.74181 | 115.57301 | 24523 ft | 457 kts | 335° |
| 2026-04-20 16:59 | 29.77156 | 115.55997 | 24846 ft | 457 kts | 335° |
| 2026-04-20 16:59 | 29.80129 | 115.54694 | 25125 ft | 458 kts | 335° |
| 2026-04-20 16:59 | 29.83119 | 115.53380 | 25342 ft | 461 kts | 335° |
| 2026-04-20 16:59 | 29.86123 | 115.52059 | 25565 ft | 463 kts | 335° |
| 2026-04-20 17:00 | 29.92156 | 115.49405 | 26077 ft | 466 kts | 335° |
| 2026-04-20 17:00 | 29.95189 | 115.48068 | 26316 ft | 467 kts | 335° |
| 2026-04-20 17:00 | 29.98232 | 115.46727 | 26551 ft | 469 kts | 335° |
| 2026-04-20 17:01 | 30.00249 | 115.45837 | 26703 ft | 470 kts | 335° |
| 2026-04-20 17:01 | 30.04347 | 115.44029 | 27024 ft | 472 kts | 335° |
| 2026-04-20 17:01 | 30.06380 | 115.43131 | 27194 ft | 472 kts | 335° |
| 2026-04-20 17:01 | 30.09456 | 115.41772 | 27418 ft | 474 kts | 335° |
| 2026-04-20 17:02 | 30.13535 | 115.39968 | 27697 ft | 476 kts | 335° |
| 2026-04-20 17:02 | 30.15631 | 115.39041 | 27832 ft | 477 kts | 335° |
| 2026-04-20 17:02 | 30.18730 | 115.37668 | 28039 ft | 479 kts | 335° |
| 2026-04-20 17:02 | 30.21843 | 115.36289 | 28275 ft | 479 kts | 335° |
| 2026-04-20 17:03 | 30.24955 | 115.34910 | 28583 ft | 478 kts | 335° |
| 2026-04-20 17:03 | 30.28055 | 115.33535 | 28933 ft | 477 kts | 335° |
| 2026-04-20 17:03 | 30.31111 | 115.32179 | 29298 ft | 475 kts | 335° |
| 2026-04-20 17:03 | 30.34192 | 115.30811 | 29603 ft | 475 kts | 335° |
| 2026-04-20 17:04 | 30.37321 | 115.29572 | 29878 ft | 479 kts | 345° |
| 2026-04-20 17:04 | 30.40675 | 115.29371 | 30110 ft | 489 kts | 4° |
| 2026-04-20 17:04 | 30.43972 | 115.30351 | 30415 ft | 494 kts | 21° |
| 2026-04-20 17:04 | 30.46974 | 115.32301 | 30706 ft | 498 kts | 36° |
| 2026-04-20 17:05 | 30.49427 | 115.35142 | 30929 ft | 501 kts | 51° |
| 2026-04-20 17:05 | 30.51549 | 115.38333 | 31216 ft | 500 kts | 52° |
| 2026-04-20 17:05 | 30.53629 | 115.41577 | 31453 ft | 501 kts | 53° |
| 2026-04-20 17:05 | 30.55705 | 115.44827 | 31648 ft | 503 kts | 52° |
| 2026-04-20 17:06 | 30.57811 | 115.48088 | 31816 ft | 506 kts | 52° |
| 2026-04-20 17:06 | 30.59937 | 115.51337 | 32131 ft | 504 kts | 51° |
| 2026-04-20 17:06 | 30.62066 | 115.54560 | 32457 ft | 503 kts | 51° |
| 2026-04-20 17:06 | 30.64202 | 115.57780 | 32749 ft | 502 kts | 51° |
| 2026-04-20 17:07 | 30.66336 | 115.60992 | 33001 ft | 502 kts | 51° |
| 2026-04-20 17:07 | 30.70616 | 115.67446 | 33057 ft | 505 kts | 51° |
| 2026-04-20 17:08 | 30.74871 | 115.73884 | 33068 ft | 501 kts | 51° |
| 2026-04-20 17:08 | 30.79119 | 115.80325 | 33079 ft | 502 kts | 51° |
| 2026-04-20 17:09 | 30.83369 | 115.86772 | 33075 ft | 502 kts | 51° |
| 2026-04-20 17:09 | 30.87443 | 115.93376 | 33091 ft | 503 kts | 57° |
| 2026-04-20 17:10 | 30.91021 | 116.00391 | 33100 ft | 504 kts | 59° |
| 2026-04-20 17:10 | 30.94532 | 116.07472 | 33114 ft | 505 kts | 59° |
| 2026-04-20 17:11 | 30.98095 | 116.14536 | 33105 ft | 506 kts | 58° |
| 2026-04-20 17:11 | 31.01699 | 116.21598 | 33106 ft | 507 kts | 58° |
| 2026-04-20 17:12 | 31.05282 | 116.28610 | 33117 ft | 507 kts | 58° |
| 2026-04-20 17:12 | 31.08891 | 116.35694 | 33121 ft | 508 kts | 58° |
| 2026-04-20 17:13 | 31.12496 | 116.42788 | 33118 ft | 508 kts | 58° |
| 2026-04-20 17:13 | 31.16093 | 116.49882 | 33123 ft | 508 kts | 59° |
| 2026-04-20 17:14 | 31.19684 | 116.56977 | 33120 ft | 508 kts | 59° |
| 2026-04-20 17:14 | 31.23268 | 116.64071 | 33119 ft | 508 kts | 59° |
| 2026-04-20 17:15 | 31.26855 | 116.71184 | 33120 ft | 507 kts | 59° |
| 2026-04-20 17:15 | 31.30432 | 116.78289 | 33131 ft | 507 kts | 58° |
| 2026-04-20 17:16 | 31.34003 | 116.85395 | 33127 ft | 507 kts | 59° |
| 2026-04-20 17:16 | 31.37567 | 116.92501 | 33117 ft | 506 kts | 58° |
| 2026-04-20 17:17 | 31.41126 | 116.99612 | 33124 ft | 506 kts | 58° |
| 2026-04-20 17:17 | 31.44679 | 117.06724 | 33140 ft | 506 kts | 59° |
| 2026-04-20 17:18 | 31.48229 | 117.13842 | 33129 ft | 506 kts | 59° |
| 2026-04-20 17:18 | 31.51777 | 117.20972 | 33127 ft | 507 kts | 59° |
| 2026-04-20 17:19 | 31.55207 | 117.28195 | 33113 ft | 508 kts | 66° |
| 2026-04-20 17:19 | 31.57180 | 117.36111 | 33134 ft | 507 kts | 80° |
| 2026-04-20 17:20 | 31.58505 | 117.44249 | 33120 ft | 508 kts | 79° |
| 2026-04-20 17:20 | 31.59914 | 117.52365 | 33140 ft | 509 kts | 79° |
| 2026-04-20 17:21 | 31.61263 | 117.60526 | 33122 ft | 510 kts | 83° |
| 2026-04-20 17:21 | 31.62074 | 117.68727 | 33135 ft | 510 kts | 85° |
| 2026-04-20 17:22 | 31.62786 | 117.77003 | 33129 ft | 510 kts | 85° |
| 2026-04-20 17:22 | 31.63566 | 117.85344 | 33142 ft | 511 kts | 85° |
| 2026-04-20 17:23 | 31.64375 | 117.93630 | 33135 ft | 511 kts | 85° |
| 2026-04-20 17:23 | 31.65174 | 118.01863 | 33134 ft | 511 kts | 85° |
| 2026-04-20 17:24 | 31.65969 | 118.10153 | 33128 ft | 511 kts | 85° |
| 2026-04-20 17:24 | 31.66726 | 118.18444 | 33134 ft | 511 kts | 88° |
| 2026-04-20 17:25 | 31.66832 | 118.26762 | 33141 ft | 510 kts | 93° |
| 2026-04-20 17:25 | 31.66731 | 118.35079 | 33143 ft | 510 kts | 93° |
| 2026-04-20 17:26 | 31.66685 | 118.43414 | 33142 ft | 511 kts | 92° |
| 2026-04-20 17:26 | 31.66686 | 118.51756 | 33150 ft | 511 kts | 92° |